sensor_id;sensor_type;location;lat;lon;timestamp;temperature;humidity
54260;DHT22;40172;53.022;7.012;2022-09-13T00:00:57;17.20;99.90
54260;DHT22;40172;53.022;7.012;2022-09-13T00:03:23;17.10;99.90
54260;DHT22;40172;53.022;7.012;2022-09-13T00:05:50;17.20;99.90
54260;DHT22;40172;53.022;7.012;2022-09-13T00:08:16;17.10;99.90
54260;DHT22;40172;53.022;7.012;2022-09-13T00:10:43;17.00;99.90
54260;DHT22;40172;53.022;7.012;2022-09-13T00:13:10;17.10;99.90
54260;DHT22;40172;53.022;7.012;2022-09-13T00:15:36;17.00;99.90
54260;DHT22;40172;53.022;7.012;2022-09-13T00:18:06;17.00;99.90
54260;DHT22;40172;53.022;7.012;2022-09-13T00:20:32;17.00;99.90
54260;DHT22;40172;53.022;7.012;2022-09-13T00:22:57;17.10;99.90
54260;DHT22;40172;53.022;7.012;2022-09-13T00:25:23;17.00;99.90
54260;DHT22;40172;53.022;7.012;2022-09-13T00:27:49;17.00;99.90
54260;DHT22;40172;53.022;7.012;2022-09-13T00:30:14;17.00;99.90
54260;DHT22;40172;53.022;7.012;2022-09-13T00:32:40;17.00;99.90
54260;DHT22;40172;53.022;7.012;2022-09-13T00:35:06;16.90;99.90
54260;DHT22;40172;53.022;7.012;2022-09-13T00:37:32;17.00;99.90
54260;DHT22;40172;53.022;7.012;2022-09-13T00:40:02;16.90;99.90
54260;DHT22;40172;53.022;7.012;2022-09-13T00:42:30;16.90;99.90
54260;DHT22;40172;53.022;7.012;2022-09-13T00:47:48;17.00;99.90
54260;DHT22;40172;53.022;7.012;2022-09-13T00:50:25;17.00;99.90
54260;DHT22;40172;53.022;7.012;2022-09-13T00:53:02;16.90;99.90
54260;DHT22;40172;53.022;7.012;2022-09-13T00:55:34;16.90;99.90
54260;DHT22;40172;53.022;7.012;2022-09-13T00:58:05;16.90;99.90
54260;DHT22;40172;53.022;7.012;2022-09-13T01:00:32;16.80;99.90
54260;DHT22;40172;53.022;7.012;2022-09-13T01:03:01;16.90;99.90
54260;DHT22;40172;53.022;7.012;2022-09-13T01:05:32;16.80;99.90
54260;DHT22;40172;53.022;7.012;2022-09-13T01:08:00;16.80;99.90
54260;DHT22;40172;53.022;7.012;2022-09-13T01:10:26;16.90;99.90
54260;DHT22;40172;53.022;7.012;2022-09-13T01:15:21;16.90;99.90
54260;DHT22;40172;53.022;7.012;2022-09-13T01:17:48;16.90;99.90
54260;DHT22;40172;53.022;7.012;2022-09-13T01:20:15;16.80;99.90
54260;DHT22;40172;53.022;7.012;2022-09-13T01:31:08;16.90;99.90
54260;DHT22;40172;53.022;7.012;2022-09-13T01:33:33;16.90;99.90
54260;DHT22;40172;53.022;7.012;2022-09-13T01:36:17;16.80;99.90
54260;DHT22;40172;53.022;7.012;2022-09-13T01:39:05;16.80;99.90
54260;DHT22;40172;53.022;7.012;2022-09-13T01:41:59;16.70;99.90
54260;DHT22;40172;53.022;7.012;2022-09-13T01:47:22;16.80;99.90
54260;DHT22;40172;53.022;7.012;2022-09-13T01:52:37;16.80;99.90
54260;DHT22;40172;53.022;7.012;2022-09-13T01:55:12;16.80;99.90
54260;DHT22;40172;53.022;7.012;2022-09-13T02:00:15;16.70;99.90
54260;DHT22;40172;53.022;7.012;2022-09-13T02:03:01;16.70;99.90
54260;DHT22;40172;53.022;7.012;2022-09-13T02:05:39;16.70;99.90
54260;DHT22;40172;53.022;7.012;2022-09-13T02:08:23;16.70;99.90
54260;DHT22;40172;53.022;7.012;2022-09-13T02:11:12;16.80;99.90
54260;DHT22;40172;53.022;7.012;2022-09-13T02:13:42;17.00;99.90
54260;DHT22;40172;53.022;7.012;2022-09-13T02:16:15;16.70;99.90
54260;DHT22;40172;53.022;7.012;2022-09-13T02:18:47;16.60;99.90
54260;DHT22;40172;53.022;7.012;2022-09-13T02:21:21;17.00;99.90
54260;DHT22;40172;53.022;7.012;2022-09-13T02:23:54;16.70;99.90
54260;DHT22;40172;53.022;7.012;2022-09-13T02:26:22;16.70;99.90
54260;DHT22;40172;53.022;7.012;2022-09-13T02:28:54;16.60;99.90
54260;DHT22;40172;53.022;7.012;2022-09-13T02:31:40;16.60;99.90
54260;DHT22;40172;53.022;7.012;2022-09-13T02:34:16;16.70;99.90
54260;DHT22;40172;53.022;7.012;2022-09-13T02:36:45;16.70;99.90
54260;DHT22;40172;53.022;7.012;2022-09-13T02:39:14;16.70;99.90
54260;DHT22;40172;53.022;7.012;2022-09-13T02:41:51;16.60;99.90
54260;DHT22;40172;53.022;7.012;2022-09-13T02:44:30;16.70;99.90
54260;DHT22;40172;53.022;7.012;2022-09-13T02:47:18;16.60;99.90
54260;DHT22;40172;53.022;7.012;2022-09-13T02:49:58;16.70;99.90
54260;DHT22;40172;53.022;7.012;2022-09-13T03:00:11;16.60;99.90
54260;DHT22;40172;53.022;7.012;2022-09-13T03:02:37;16.60;99.90
54260;DHT22;40172;53.022;7.012;2022-09-13T03:05:04;16.60;99.90
54260;DHT22;40172;53.022;7.012;2022-09-13T03:07:29;16.60;99.90
54260;DHT22;40172;53.022;7.012;2022-09-13T03:10:00;16.60;99.90
54260;DHT22;40172;53.022;7.012;2022-09-13T03:15:53;16.60;99.90
54260;DHT22;40172;53.022;7.012;2022-09-13T03:24:11;16.60;99.90
54260;DHT22;40172;53.022;7.012;2022-09-13T03:27:15;16.70;99.90
54260;DHT22;40172;53.022;7.012;2022-09-13T03:30:06;16.60;99.90
54260;DHT22;40172;53.022;7.012;2022-09-13T03:32:40;16.60;99.90
54260;DHT22;40172;53.022;7.012;2022-09-13T03:35:26;16.70;99.90
54260;DHT22;40172;53.022;7.012;2022-09-13T03:41:04;16.70;99.90
54260;DHT22;40172;53.022;7.012;2022-09-13T03:43:47;16.70;99.90
54260;DHT22;40172;53.022;7.012;2022-09-13T03:46:18;16.60;99.90
54260;DHT22;40172;53.022;7.012;2022-09-13T03:48:46;16.80;99.90
54260;DHT22;40172;53.022;7.012;2022-09-13T03:51:12;16.60;99.90
54260;DHT22;40172;53.022;7.012;2022-09-13T03:53:44;16.70;99.90
54260;DHT22;40172;53.022;7.012;2022-09-13T03:56:18;16.70;99.90
54260;DHT22;40172;53.022;7.012;2022-09-13T03:58:45;16.80;99.90
54260;DHT22;40172;53.022;7.012;2022-09-13T04:01:11;16.80;99.90
54260;DHT22;40172;53.022;7.012;2022-09-13T04:03:37;16.80;99.90
54260;DHT22;40172;53.022;7.012;2022-09-13T04:06:03;17.30;99.90
54260;DHT22;40172;53.022;7.012;2022-09-13T04:08:30;16.70;99.90
54260;DHT22;40172;53.022;7.012;2022-09-13T04:10:56;16.80;99.90
54260;DHT22;40172;53.022;7.012;2022-09-13T04:13:22;16.90;99.90
54260;DHT22;40172;53.022;7.012;2022-09-13T04:15:48;16.90;99.90
54260;DHT22;40172;53.022;7.012;2022-09-13T04:18:14;16.80;99.90
54260;DHT22;40172;53.022;7.012;2022-09-13T04:20:40;16.80;99.90
54260;DHT22;40172;53.022;7.012;2022-09-13T04:23:06;16.90;99.90
54260;DHT22;40172;53.022;7.012;2022-09-13T04:25:32;16.90;99.90
54260;DHT22;40172;53.022;7.012;2022-09-13T04:27:58;17.70;99.90
54260;DHT22;40172;53.022;7.012;2022-09-13T04:30:27;16.90;99.90
54260;DHT22;40172;53.022;7.012;2022-09-13T04:32:53;16.90;99.90
54260;DHT22;40172;53.022;7.012;2022-09-13T04:35:21;17.00;99.90
54260;DHT22;40172;53.022;7.012;2022-09-13T04:37:47;16.90;99.90
54260;DHT22;40172;53.022;7.012;2022-09-13T04:40:12;17.00;99.90
54260;DHT22;40172;53.022;7.012;2022-09-13T04:42:39;16.90;99.90
54260;DHT22;40172;53.022;7.012;2022-09-13T04:45:05;16.90;99.90
54260;DHT22;40172;53.022;7.012;2022-09-13T04:47:31;17.00;99.90
54260;DHT22;40172;53.022;7.012;2022-09-13T04:49:57;16.90;99.90
54260;DHT22;40172;53.022;7.012;2022-09-13T04:52:22;17.00;99.90
54260;DHT22;40172;53.022;7.012;2022-09-13T04:54:48;17.00;99.90
54260;DHT22;40172;53.022;7.012;2022-09-13T04:57:14;16.90;99.90
54260;DHT22;40172;53.022;7.012;2022-09-13T04:59:41;16.80;99.90
54260;DHT22;40172;53.022;7.012;2022-09-13T05:02:07;17.00;99.90
54260;DHT22;40172;53.022;7.012;2022-09-13T05:04:32;16.80;99.90
54260;DHT22;40172;53.022;7.012;2022-09-13T05:06:58;16.90;99.90
54260;DHT22;40172;53.022;7.012;2022-09-13T05:09:24;16.90;99.90
54260;DHT22;40172;53.022;7.012;2022-09-13T05:11:49;17.00;99.90
54260;DHT22;40172;53.022;7.012;2022-09-13T05:14:16;16.90;99.90
54260;DHT22;40172;53.022;7.012;2022-09-13T05:16:42;16.80;99.90
54260;DHT22;40172;53.022;7.012;2022-09-13T05:19:09;17.00;99.90
54260;DHT22;40172;53.022;7.012;2022-09-13T05:21:36;17.00;99.90
54260;DHT22;40172;53.022;7.012;2022-09-13T05:24:01;17.00;99.90
54260;DHT22;40172;53.022;7.012;2022-09-13T05:26:28;17.10;99.90
54260;DHT22;40172;53.022;7.012;2022-09-13T05:28:58;16.90;99.90
54260;DHT22;40172;53.022;7.012;2022-09-13T05:31:26;17.00;99.90
54260;DHT22;40172;53.022;7.012;2022-09-13T05:33:56;17.00;99.90
54260;DHT22;40172;53.022;7.012;2022-09-13T05:36:23;16.90;99.90
54260;DHT22;40172;53.022;7.012;2022-09-13T05:38:48;16.90;99.90
54260;DHT22;40172;53.022;7.012;2022-09-13T05:41:14;16.90;99.90
54260;DHT22;40172;53.022;7.012;2022-09-13T05:43:39;16.90;99.90
54260;DHT22;40172;53.022;7.012;2022-09-13T05:46:12;17.00;99.90
54260;DHT22;40172;53.022;7.012;2022-09-13T05:48:38;16.80;99.90
54260;DHT22;40172;53.022;7.012;2022-09-13T05:51:11;16.90;99.90
54260;DHT22;40172;53.022;7.012;2022-09-13T05:53:41;16.90;99.90
54260;DHT22;40172;53.022;7.012;2022-09-13T05:56:09;16.90;99.90
54260;DHT22;40172;53.022;7.012;2022-09-13T05:58:40;17.00;99.90
54260;DHT22;40172;53.022;7.012;2022-09-13T06:01:06;17.00;99.90
54260;DHT22;40172;53.022;7.012;2022-09-13T06:03:32;17.00;99.90
54260;DHT22;40172;53.022;7.012;2022-09-13T06:05:58;16.80;99.90
54260;DHT22;40172;53.022;7.012;2022-09-13T06:08:28;17.10;99.90
54260;DHT22;40172;53.022;7.012;2022-09-13T06:11:06;17.10;99.90
54260;DHT22;40172;53.022;7.012;2022-09-13T06:13:32;17.10;99.90
54260;DHT22;40172;53.022;7.012;2022-09-13T06:15:59;17.10;99.90
54260;DHT22;40172;53.022;7.012;2022-09-13T06:18:25;17.10;99.90
54260;DHT22;40172;53.022;7.012;2022-09-13T06:20:57;17.10;99.90
54260;DHT22;40172;53.022;7.012;2022-09-13T06:23:25;17.10;99.90
54260;DHT22;40172;53.022;7.012;2022-09-13T06:25:59;17.20;99.90
54260;DHT22;40172;53.022;7.012;2022-09-13T06:28:24;17.00;99.90
54260;DHT22;40172;53.022;7.012;2022-09-13T06:30:50;17.10;99.90
54260;DHT22;40172;53.022;7.012;2022-09-13T06:33:15;17.00;99.90
54260;DHT22;40172;53.022;7.012;2022-09-13T06:35:41;17.10;99.90
54260;DHT22;40172;53.022;7.012;2022-09-13T06:38:07;17.00;99.90
54260;DHT22;40172;53.022;7.012;2022-09-13T06:40:32;17.00;99.90
54260;DHT22;40172;53.022;7.012;2022-09-13T06:42:58;17.20;99.90
54260;DHT22;40172;53.022;7.012;2022-09-13T06:45:23;17.00;99.90
54260;DHT22;40172;53.022;7.012;2022-09-13T06:47:50;17.00;99.90
54260;DHT22;40172;53.022;7.012;2022-09-13T06:50:17;17.00;99.90
54260;DHT22;40172;53.022;7.012;2022-09-13T06:52:42;16.90;99.90
54260;DHT22;40172;53.022;7.012;2022-09-13T06:55:08;17.00;99.90
54260;DHT22;40172;53.022;7.012;2022-09-13T06:57:34;16.90;99.90
54260;DHT22;40172;53.022;7.012;2022-09-13T06:59:59;17.10;99.90
54260;DHT22;40172;53.022;7.012;2022-09-13T07:02:25;17.10;99.90
54260;DHT22;40172;53.022;7.012;2022-09-13T07:04:51;17.10;99.90
54260;DHT22;40172;53.022;7.012;2022-09-13T07:07:16;17.10;99.90
54260;DHT22;40172;53.022;7.012;2022-09-13T07:09:42;18.50;99.90
54260;DHT22;40172;53.022;7.012;2022-09-13T07:12:08;17.30;99.90
54260;DHT22;40172;53.022;7.012;2022-09-13T07:14:33;17.30;99.90
54260;DHT22;40172;53.022;7.012;2022-09-13T07:16:59;17.20;99.90
54260;DHT22;40172;53.022;7.012;2022-09-13T07:19:26;17.20;99.90
54260;DHT22;40172;53.022;7.012;2022-09-13T07:21:53;17.30;99.90
54260;DHT22;40172;53.022;7.012;2022-09-13T07:24:20;17.30;99.90
54260;DHT22;40172;53.022;7.012;2022-09-13T07:26:46;17.40;99.90
54260;DHT22;40172;53.022;7.012;2022-09-13T07:29:17;17.40;99.90
54260;DHT22;40172;53.022;7.012;2022-09-13T07:31:48;18.40;99.90
54260;DHT22;40172;53.022;7.012;2022-09-13T07:34:16;17.70;99.90
54260;DHT22;40172;53.022;7.012;2022-09-13T07:36:42;18.80;99.90
54260;DHT22;40172;53.022;7.012;2022-09-13T07:39:08;17.70;99.90
54260;DHT22;40172;53.022;7.012;2022-09-13T07:41:34;17.70;99.90
54260;DHT22;40172;53.022;7.012;2022-09-13T07:44:00;17.80;99.90
54260;DHT22;40172;53.022;7.012;2022-09-13T07:46:27;17.80;99.90
54260;DHT22;40172;53.022;7.012;2022-09-13T07:48:57;17.90;99.90
54260;DHT22;40172;53.022;7.012;2022-09-13T07:51:28;17.90;99.90
54260;DHT22;40172;53.022;7.012;2022-09-13T07:53:56;17.80;99.90
54260;DHT22;40172;53.022;7.012;2022-09-13T07:56:24;18.00;99.90
54260;DHT22;40172;53.022;7.012;2022-09-13T07:58:51;18.20;99.90
54260;DHT22;40172;53.022;7.012;2022-09-13T08:01:39;18.40;99.90
54260;DHT22;40172;53.022;7.012;2022-09-13T08:04:10;18.50;99.90
54260;DHT22;40172;53.022;7.012;2022-09-13T08:06:38;18.60;99.90
54260;DHT22;40172;53.022;7.012;2022-09-13T08:09:07;18.80;99.90
54260;DHT22;40172;53.022;7.012;2022-09-13T08:11:38;18.80;99.90
54260;DHT22;40172;53.022;7.012;2022-09-13T08:14:06;18.70;99.90
54260;DHT22;40172;53.022;7.012;2022-09-13T08:16:32;18.60;99.90
54260;DHT22;40172;53.022;7.012;2022-09-13T08:19:01;18.70;99.90
54260;DHT22;40172;53.022;7.012;2022-09-13T08:21:32;18.80;99.90
54260;DHT22;40172;53.022;7.012;2022-09-13T08:23:58;18.80;99.90
54260;DHT22;40172;53.022;7.012;2022-09-13T08:26:26;18.90;99.90
54260;DHT22;40172;53.022;7.012;2022-09-13T08:28:59;19.10;99.90
54260;DHT22;40172;53.022;7.012;2022-09-13T08:31:26;19.20;99.90
54260;DHT22;40172;53.022;7.012;2022-09-13T08:33:52;19.20;99.90
54260;DHT22;40172;53.022;7.012;2022-09-13T08:36:19;19.20;99.90
54260;DHT22;40172;53.022;7.012;2022-09-13T08:38:50;19.20;99.90
54260;DHT22;40172;53.022;7.012;2022-09-13T08:49:39;19.30;99.90
54260;DHT22;40172;53.022;7.012;2022-09-13T08:54:40;19.60;99.90
54260;DHT22;40172;53.022;7.012;2022-09-13T08:57:37;19.60;99.90
54260;DHT22;40172;53.022;7.012;2022-09-13T09:00:34;19.30;99.90
54260;DHT22;40172;53.022;7.012;2022-09-13T09:05:57;19.20;99.90
54260;DHT22;40172;53.022;7.012;2022-09-13T09:08:38;19.40;99.90
54260;DHT22;40172;53.022;7.012;2022-09-13T09:11:23;19.40;99.90
54260;DHT22;40172;53.022;7.012;2022-09-13T09:14:14;19.60;99.90
54260;DHT22;40172;53.022;7.012;2022-09-13T09:16:52;19.50;99.90
54260;DHT22;40172;53.022;7.012;2022-09-13T09:21:52;19.60;99.90
54260;DHT22;40172;53.022;7.012;2022-09-13T09:24:23;19.60;99.90
54260;DHT22;40172;53.022;7.012;2022-09-13T09:26:52;19.60;99.90
54260;DHT22;40172;53.022;7.012;2022-09-13T09:29:26;19.50;99.90
54260;DHT22;40172;53.022;7.012;2022-09-13T09:37:27;19.70;99.90
54260;DHT22;40172;53.022;7.012;2022-09-13T09:39:57;19.80;99.90
54260;DHT22;40172;53.022;7.012;2022-09-13T09:42:28;20.10;99.90
54260;DHT22;40172;53.022;7.012;2022-09-13T09:44:59;20.30;99.90
54260;DHT22;40172;53.022;7.012;2022-09-13T09:47:28;20.30;99.90
54260;DHT22;40172;53.022;7.012;2022-09-13T09:50:06;20.10;99.90
54260;DHT22;40172;53.022;7.012;2022-09-13T09:55:36;20.00;99.90
54260;DHT22;40172;53.022;7.012;2022-09-13T09:58:06;20.20;99.90
54260;DHT22;40172;53.022;7.012;2022-09-13T10:00:36;20.30;99.90
54260;DHT22;40172;53.022;7.012;2022-09-13T10:03:06;20.50;99.90
54260;DHT22;40172;53.022;7.012;2022-09-13T10:05:34;20.60;99.90
54260;DHT22;40172;53.022;7.012;2022-09-13T10:08:05;20.70;99.90
54260;DHT22;40172;53.022;7.012;2022-09-13T10:10:52;20.60;99.90
54260;DHT22;40172;53.022;7.012;2022-09-13T10:13:20;20.40;99.90
54260;DHT22;40172;53.022;7.012;2022-09-13T10:15:53;20.10;99.90
54260;DHT22;40172;53.022;7.012;2022-09-13T10:18:21;19.80;99.90
54260;DHT22;40172;53.022;7.012;2022-09-13T10:23:29;19.70;99.90
54260;DHT22;40172;53.022;7.012;2022-09-13T10:28:23;19.60;99.90
54260;DHT22;40172;53.022;7.012;2022-09-13T10:31:05;19.80;99.90
54260;DHT22;40172;53.022;7.012;2022-09-13T10:33:37;19.90;99.90
54260;DHT22;40172;53.022;7.012;2022-09-13T10:36:15;20.10;99.90
54260;DHT22;40172;53.022;7.012;2022-09-13T10:41:23;20.00;99.90
54260;DHT22;40172;53.022;7.012;2022-09-13T10:44:02;20.10;99.90
54260;DHT22;40172;53.022;7.012;2022-09-13T10:46:30;20.20;99.90
54260;DHT22;40172;53.022;7.012;2022-09-13T10:48:56;20.20;99.90
54260;DHT22;40172;53.022;7.012;2022-09-13T10:56:32;20.40;99.90
54260;DHT22;40172;53.022;7.012;2022-09-13T11:01:52;20.50;99.90
54260;DHT22;40172;53.022;7.012;2022-09-13T11:04:39;20.40;99.90
54260;DHT22;40172;53.022;7.012;2022-09-13T11:07:22;20.30;99.90
54260;DHT22;40172;53.022;7.012;2022-09-13T11:21:02;20.70;99.90
54260;DHT22;40172;53.022;7.012;2022-09-13T11:23:49;20.80;99.90
54260;DHT22;40172;53.022;7.012;2022-09-13T11:26:50;20.90;99.90
54260;DHT22;40172;53.022;7.012;2022-09-13T11:32:35;21.10;99.90
54260;DHT22;40172;53.022;7.012;2022-09-13T11:37:51;21.00;99.90
54260;DHT22;40172;53.022;7.012;2022-09-13T11:43:29;20.50;99.90
54260;DHT22;40172;53.022;7.012;2022-09-13T11:51:51;20.30;99.90
54260;DHT22;40172;53.022;7.012;2022-09-13T11:54:30;20.30;99.90
54260;DHT22;40172;53.022;7.012;2022-09-13T11:57:03;20.40;99.90
54260;DHT22;40172;53.022;7.012;2022-09-13T11:59:39;20.60;99.90
54260;DHT22;40172;53.022;7.012;2022-09-13T12:02:30;20.70;99.90
54260;DHT22;40172;53.022;7.012;2022-09-13T12:05:07;21.00;99.90
54260;DHT22;40172;53.022;7.012;2022-09-13T12:07:43;21.20;99.90
54260;DHT22;40172;53.022;7.012;2022-09-13T12:10:23;21.30;99.90
54260;DHT22;40172;53.022;7.012;2022-09-13T12:12:50;21.10;99.90
54260;DHT22;40172;53.022;7.012;2022-09-13T12:18:04;20.70;99.90
54260;DHT22;40172;53.022;7.012;2022-09-13T12:20:37;20.60;99.90
54260;DHT22;40172;53.022;7.012;2022-09-13T12:23:10;20.60;99.90
54260;DHT22;40172;53.022;7.012;2022-09-13T12:25:47;20.60;99.90
54260;DHT22;40172;53.022;7.012;2022-09-13T12:28:22;20.70;99.90
54260;DHT22;40172;53.022;7.012;2022-09-13T12:30:59;20.80;99.90
54260;DHT22;40172;53.022;7.012;2022-09-13T12:33:26;21.30;99.90
54260;DHT22;40172;53.022;7.012;2022-09-13T12:36:18;20.90;99.90
54260;DHT22;40172;53.022;7.012;2022-09-13T12:41:41;20.80;99.90
54260;DHT22;40172;53.022;7.012;2022-09-13T12:44:26;21.70;99.90
54260;DHT22;40172;53.022;7.012;2022-09-13T12:50:18;20.80;99.90
54260;DHT22;40172;53.022;7.012;2022-09-13T12:55:43;20.80;99.90
54260;DHT22;40172;53.022;7.012;2022-09-13T12:58:34;20.80;99.90
54260;DHT22;40172;53.022;7.012;2022-09-13T13:01:23;20.80;99.90
54260;DHT22;40172;53.022;7.012;2022-09-13T13:03:53;20.70;99.90
54260;DHT22;40172;53.022;7.012;2022-09-13T13:06:28;20.70;99.90
54260;DHT22;40172;53.022;7.012;2022-09-13T13:08:57;20.80;99.90
54260;DHT22;40172;53.022;7.012;2022-09-13T13:11:28;20.80;99.90
54260;DHT22;40172;53.022;7.012;2022-09-13T13:14:01;20.80;99.90
54260;DHT22;40172;53.022;7.012;2022-09-13T13:16:38;20.90;99.90
54260;DHT22;40172;53.022;7.012;2022-09-13T13:19:28;21.70;99.90
54260;DHT22;40172;53.022;7.012;2022-09-13T13:21:54;21.00;99.90
54260;DHT22;40172;53.022;7.012;2022-09-13T13:26:55;21.20;99.90
54260;DHT22;40172;53.022;7.012;2022-09-13T13:29:25;21.30;99.90
54260;DHT22;40172;53.022;7.012;2022-09-13T13:34:46;21.20;99.90
54260;DHT22;40172;53.022;7.012;2022-09-13T13:39:44;21.20;99.90
54260;DHT22;40172;53.022;7.012;2022-09-13T13:52:33;21.20;99.90
54260;DHT22;40172;53.022;7.012;2022-09-13T13:55:22;21.30;99.90
54260;DHT22;40172;53.022;7.012;2022-09-13T14:00:23;21.20;99.90
54260;DHT22;40172;53.022;7.012;2022-09-13T14:10:59;21.00;99.90
54260;DHT22;40172;53.022;7.012;2022-09-13T14:16:24;20.90;99.90
54260;DHT22;40172;53.022;7.012;2022-09-13T14:22:23;20.60;99.90
54260;DHT22;40172;53.022;7.012;2022-09-13T14:24:51;20.50;99.90
54260;DHT22;40172;53.022;7.012;2022-09-13T14:27:24;20.40;99.90
54260;DHT22;40172;53.022;7.012;2022-09-13T14:29:53;21.00;99.90
54260;DHT22;40172;53.022;7.012;2022-09-13T14:32:22;20.50;99.90
54260;DHT22;40172;53.022;7.012;2022-09-13T14:35:05;20.60;99.90
54260;DHT22;40172;53.022;7.012;2022-09-13T14:37:36;20.60;99.90
54260;DHT22;40172;53.022;7.012;2022-09-13T14:40:13;20.60;99.90
54260;DHT22;40172;53.022;7.012;2022-09-13T14:42:45;20.60;99.90
54260;DHT22;40172;53.022;7.012;2022-09-13T14:45:33;20.60;99.90
54260;DHT22;40172;53.022;7.012;2022-09-13T14:48:07;20.70;99.90
54260;DHT22;40172;53.022;7.012;2022-09-13T14:50:40;20.60;99.90
54260;DHT22;40172;53.022;7.012;2022-09-13T14:53:14;20.60;99.90
54260;DHT22;40172;53.022;7.012;2022-09-13T14:55:44;21.70;99.90
54260;DHT22;40172;53.022;7.012;2022-09-13T14:58:21;20.40;99.90
54260;DHT22;40172;53.022;7.012;2022-09-13T15:00:54;20.40;99.90
54260;DHT22;40172;53.022;7.012;2022-09-13T15:03:21;20.30;99.90
54260;DHT22;40172;53.022;7.012;2022-09-13T15:05:52;20.20;99.90
54260;DHT22;40172;53.022;7.012;2022-09-13T15:08:40;20.10;99.90
54260;DHT22;40172;53.022;7.012;2022-09-13T15:11:13;20.00;99.90
54260;DHT22;40172;53.022;7.012;2022-09-13T15:13:39;19.90;99.90
54260;DHT22;40172;53.022;7.012;2022-09-13T15:16:24;19.90;99.90
54260;DHT22;40172;53.022;7.012;2022-09-13T15:19:14;20.00;99.90
54260;DHT22;40172;53.022;7.012;2022-09-13T15:21:40;20.10;99.90
54260;DHT22;40172;53.022;7.012;2022-09-13T15:24:20;20.10;99.90
54260;DHT22;40172;53.022;7.012;2022-09-13T15:26:46;20.10;99.90
54260;DHT22;40172;53.022;7.012;2022-09-13T15:29:17;20.00;99.90
54260;DHT22;40172;53.022;7.012;2022-09-13T15:31:43;19.80;99.90
54260;DHT22;40172;53.022;7.012;2022-09-13T15:36:46;19.50;99.90
54260;DHT22;40172;53.022;7.012;2022-09-13T15:39:20;19.40;99.90
54260;DHT22;40172;53.022;7.012;2022-09-13T15:44:17;19.40;99.90
54260;DHT22;40172;53.022;7.012;2022-09-13T15:46:51;19.40;99.90
54260;DHT22;40172;53.022;7.012;2022-09-13T15:49:20;19.40;99.90
54260;DHT22;40172;53.022;7.012;2022-09-13T15:51:51;19.30;99.90
54260;DHT22;40172;53.022;7.012;2022-09-13T15:54:17;19.30;99.90
54260;DHT22;40172;53.022;7.012;2022-09-13T15:56:45;19.30;99.90
54260;DHT22;40172;53.022;7.012;2022-09-13T15:59:16;19.30;99.90
54260;DHT22;40172;53.022;7.012;2022-09-13T16:01:43;19.20;99.90
54260;DHT22;40172;53.022;7.012;2022-09-13T16:04:10;19.10;99.90
54260;DHT22;40172;53.022;7.012;2022-09-13T16:06:36;19.00;99.90
54260;DHT22;40172;53.022;7.012;2022-09-13T16:11:44;18.90;99.90
54260;DHT22;40172;53.022;7.012;2022-09-13T16:14:09;18.80;99.90
54260;DHT22;40172;53.022;7.012;2022-09-13T16:16:35;18.80;99.90
54260;DHT22;40172;53.022;7.012;2022-09-13T16:19:00;18.80;99.90
54260;DHT22;40172;53.022;7.012;2022-09-13T16:21:26;18.80;99.90
54260;DHT22;40172;53.022;7.012;2022-09-13T16:23:53;18.80;99.90
54260;DHT22;40172;53.022;7.012;2022-09-13T16:26:19;18.80;99.90
54260;DHT22;40172;53.022;7.012;2022-09-13T16:28:45;18.80;99.90
54260;DHT22;40172;53.022;7.012;2022-09-13T16:31:10;18.70;99.90
54260;DHT22;40172;53.022;7.012;2022-09-13T16:33:36;18.70;99.90
54260;DHT22;40172;53.022;7.012;2022-09-13T16:36:01;18.60;99.90
54260;DHT22;40172;53.022;7.012;2022-09-13T16:38:27;18.50;99.90
54260;DHT22;40172;53.022;7.012;2022-09-13T16:40:53;18.50;99.90
54260;DHT22;40172;53.022;7.012;2022-09-13T16:43:18;18.40;99.90
54260;DHT22;40172;53.022;7.012;2022-09-13T16:45:44;18.40;99.90
54260;DHT22;40172;53.022;7.012;2022-09-13T16:48:10;18.30;99.90
54260;DHT22;40172;53.022;7.012;2022-09-13T16:50:38;18.20;99.90
54260;DHT22;40172;53.022;7.012;2022-09-13T16:53:04;18.20;99.90
54260;DHT22;40172;53.022;7.012;2022-09-13T16:55:30;18.10;99.90
54260;DHT22;40172;53.022;7.012;2022-09-13T16:57:55;18.00;99.90
54260;DHT22;40172;53.022;7.012;2022-09-13T17:00:21;17.90;99.90
54260;DHT22;40172;53.022;7.012;2022-09-13T17:02:48;17.80;99.90
54260;DHT22;40172;53.022;7.012;2022-09-13T17:05:14;17.70;99.90
54260;DHT22;40172;53.022;7.012;2022-09-13T17:07:40;17.60;99.90
54260;DHT22;40172;53.022;7.012;2022-09-13T17:10:07;17.50;99.90
54260;DHT22;40172;53.022;7.012;2022-09-13T17:12:33;17.30;99.90
54260;DHT22;40172;53.022;7.012;2022-09-13T17:14:59;17.20;99.90
54260;DHT22;40172;53.022;7.012;2022-09-13T17:17:25;17.10;99.90
54260;DHT22;40172;53.022;7.012;2022-09-13T17:19:51;16.90;99.90
54260;DHT22;40172;53.022;7.012;2022-09-13T17:22:17;16.80;99.90
54260;DHT22;40172;53.022;7.012;2022-09-13T17:24:42;16.70;99.90
54260;DHT22;40172;53.022;7.012;2022-09-13T17:27:09;16.60;99.90
54260;DHT22;40172;53.022;7.012;2022-09-13T17:29:35;17.80;99.90
54260;DHT22;40172;53.022;7.012;2022-09-13T17:32:03;16.30;99.90
54260;DHT22;40172;53.022;7.012;2022-09-13T17:34:30;17.00;99.90
54260;DHT22;40172;53.022;7.012;2022-09-13T17:36:59;16.20;99.90
54260;DHT22;40172;53.022;7.012;2022-09-13T17:39:24;17.40;99.90
54260;DHT22;40172;53.022;7.012;2022-09-13T17:41:57;16.10;99.90
54260;DHT22;40172;53.022;7.012;2022-09-13T17:44:23;15.00;99.90
54260;DHT22;40172;53.022;7.012;2022-09-13T17:46:49;16.00;99.90
54260;DHT22;40172;53.022;7.012;2022-09-13T17:49:14;15.90;99.90
54260;DHT22;40172;53.022;7.012;2022-09-13T17:51:40;15.50;99.90
54260;DHT22;40172;53.022;7.012;2022-09-13T17:54:07;15.80;99.90
54260;DHT22;40172;53.022;7.012;2022-09-13T17:56:36;15.40;99.90
54260;DHT22;40172;53.022;7.012;2022-09-13T17:59:08;15.50;99.90
54260;DHT22;40172;53.022;7.012;2022-09-13T18:01:36;15.50;99.90
54260;DHT22;40172;53.022;7.012;2022-09-13T18:04:02;15.40;99.90
54260;DHT22;40172;53.022;7.012;2022-09-13T18:06:28;15.40;99.90
54260;DHT22;40172;53.022;7.012;2022-09-13T18:08:54;15.30;99.90
54260;DHT22;40172;53.022;7.012;2022-09-13T18:11:20;15.30;99.90
54260;DHT22;40172;53.022;7.012;2022-09-13T18:13:46;15.20;99.90
54260;DHT22;40172;53.022;7.012;2022-09-13T18:16:15;15.20;99.90
54260;DHT22;40172;53.022;7.012;2022-09-13T18:18:41;15.10;99.90
54260;DHT22;40172;53.022;7.012;2022-09-13T18:21:07;16.50;99.90
54260;DHT22;40172;53.022;7.012;2022-09-13T18:23:34;15.00;99.90
54260;DHT22;40172;53.022;7.012;2022-09-13T18:26:05;15.10;99.90
54260;DHT22;40172;53.022;7.012;2022-09-13T18:28:31;15.10;99.90
54260;DHT22;40172;53.022;7.012;2022-09-13T18:31:00;15.10;99.90
54260;DHT22;40172;53.022;7.012;2022-09-13T18:33:26;15.10;99.90